Littlerock, California
Current Conditions -  °F | °C
As of 8:53 PM on Tuesday 25 Nov 2014 (Local Time) from KPMD Reporting Station
Clear Clear  
Wind Chill: 44°   Ceiling: Unl
Heat Index: 46°   Visibility: 10mi
Dew Point: 11°   Wind: 5mph
Humidity: 24%   Direction: 220°SW
Pressure: 30.4"   Gusts: NA
Location:  34.52°N, 117.99°W
Report Text: KPMD 260453Z 22004KT 10SM CLR 08/M12 A3040 RMK AO2 SLP296 T00781117
Loading
Personal Weather Stations






























Interactive Weather Map New forecast layout! Learn more

10-Day Weather Forecast

Advertisements
Track Severe Weather on mobile